createdAt,value
2023-03-28T00:02:57.044Z,100.00
2023-03-28T00:06:03.705Z,100.00
2023-03-28T00:09:09.476Z,100.00
2023-03-28T00:12:15.367Z,100.00
2023-03-28T00:15:22.002Z,100.00
2023-03-28T00:18:27.601Z,100.00
2023-03-28T00:21:39.422Z,100.00
2023-03-28T00:24:40.219Z,100.00
2023-03-28T00:27:26.697Z,100.00
2023-03-28T00:30:27.205Z,100.00
2023-03-28T00:33:35.637Z,100.00
2023-03-28T00:36:41.193Z,100.00
2023-03-28T00:39:47.656Z,100.00
2023-03-28T00:42:59.118Z,100.00
2023-03-28T00:46:09.368Z,100.00
2023-03-28T00:49:21.483Z,100.00
2023-03-28T00:52:27.316Z,100.00
2023-03-28T00:55:39.372Z,100.00
2023-03-28T00:58:49.184Z,100.00
2023-03-28T01:01:54.352Z,100.00
2023-03-28T01:05:07.770Z,100.00
2023-03-28T01:08:20.010Z,100.00
2023-03-28T01:11:25.808Z,100.00
2023-03-28T01:14:35.504Z,100.00
2023-03-28T01:17:41.807Z,100.00
2023-03-28T01:21:09.885Z,100.00
2023-03-28T01:24:38.246Z,100.00
2023-03-28T01:28:12.242Z,100.00
2023-03-28T01:31:35.150Z,100.00
2023-03-28T01:35:24.907Z,100.00
2023-03-28T01:38:46.633Z,100.00
2023-03-28T01:42:17.141Z,100.00
2023-03-28T01:45:54.673Z,100.00
2023-03-28T01:49:15.990Z,100.00
2023-03-28T01:52:38.429Z,100.00
2023-03-28T01:56:00.712Z,100.00
2023-03-28T01:59:30.942Z,100.00
2023-03-28T02:03:09.871Z,100.00
2023-03-28T02:06:21.772Z,100.00
2023-03-28T02:09:28.819Z,100.00
2023-03-28T02:12:44.469Z,100.00
2023-03-28T02:16:12.602Z,100.00
2023-03-28T02:19:24.738Z,100.00
2023-03-28T02:22:52.597Z,100.00
2023-03-28T02:26:03.825Z,100.00
2023-03-28T02:29:24.378Z,100.00
2023-03-28T02:32:42.557Z,100.00
2023-03-28T02:36:03.622Z,100.00
2023-03-28T02:39:39.310Z,100.00
2023-03-28T02:43:01.696Z,100.00
2023-03-28T02:46:34.945Z,100.00
2023-03-28T02:50:04.765Z,100.00
2023-03-28T02:53:30.053Z,100.00
2023-03-28T02:56:43.418Z,100.00
2023-03-28T03:00:00.315Z,100.00
2023-03-28T03:03:08.293Z,100.00
2023-03-28T03:06:13.218Z,100.00
2023-03-28T03:09:19.864Z,100.00
2023-03-28T03:12:27.010Z,100.00
2023-03-28T03:15:35.234Z,100.00
2023-03-28T03:18:52.835Z,100.00
2023-03-28T03:21:57.371Z,100.00
2023-03-28T03:25:06.247Z,100.00
2023-03-28T03:28:13.387Z,100.00
2023-03-28T03:31:19.993Z,100.00
2023-03-28T03:34:34.693Z,100.00
2023-03-28T03:37:39.336Z,100.00
2023-03-28T03:40:45.212Z,100.00
2023-03-28T03:43:52.810Z,100.00
2023-03-28T03:47:00.802Z,100.00
2023-03-28T03:50:07.018Z,100.00
2023-03-28T03:53:12.797Z,100.00
2023-03-28T03:56:33.076Z,100.00
2023-03-28T03:59:38.019Z,100.00
2023-03-28T04:02:46.226Z,100.00
2023-03-28T04:05:53.736Z,100.00
2023-03-28T04:08:59.214Z,100.00
2023-03-28T04:12:09.201Z,100.00
2023-03-28T04:15:17.687Z,100.00
2023-03-28T04:18:31.590Z,100.00
2023-03-28T04:21:42.430Z,100.00
2023-03-28T04:24:50.185Z,100.00
2023-03-28T04:28:09.053Z,100.00
2023-03-28T04:31:18.420Z,100.00
2023-03-28T04:34:41.915Z,100.00
2023-03-28T04:37:48.660Z,100.00
2023-03-28T04:40:53.748Z,100.00
2023-03-28T04:44:09.046Z,100.00
2023-03-28T04:47:18.914Z,100.00
2023-03-28T04:50:25.678Z,100.00
2023-03-28T04:53:31.337Z,100.00
2023-03-28T04:56:48.086Z,100.00
2023-03-28T04:59:35.819Z,100.00
2023-03-28T05:02:29.063Z,100.00
2023-03-28T05:05:19.237Z,100.00
2023-03-28T05:08:13.987Z,100.00
2023-03-28T05:11:01.731Z,100.00
2023-03-28T05:13:57.878Z,100.00
2023-03-28T05:16:52.574Z,100.00
2023-03-28T05:20:01.102Z,100.00
2023-03-28T05:23:09.144Z,100.00
2023-03-28T05:26:16.750Z,100.00
2023-03-28T05:29:22.617Z,100.00
2023-03-28T05:32:28.437Z,100.00
2023-03-28T05:35:34.988Z,100.00
2023-03-28T05:38:40.425Z,100.00
2023-03-28T05:41:47.577Z,100.00
2023-03-28T05:44:53.986Z,100.00
2023-03-28T05:48:18.182Z,100.00
2023-03-28T05:51:24.347Z,100.00
2023-03-28T05:54:30.278Z,100.00
2023-03-28T05:57:35.623Z,100.00
2023-03-28T06:00:35.346Z,100.00
2023-03-28T06:03:40.876Z,100.00
2023-03-28T06:06:46.711Z,100.00
2023-03-28T06:09:55.702Z,100.00
2023-03-28T06:13:08.375Z,100.00
2023-03-28T06:16:15.750Z,100.00
2023-03-28T06:19:18.680Z,100.00
2023-03-28T06:22:12.862Z,100.00
2023-03-28T06:25:22.117Z,100.00
2023-03-28T06:28:22.950Z,100.00
2023-03-28T06:31:35.761Z,100.00
2023-03-28T06:34:41.888Z,100.00
2023-03-28T06:37:49.463Z,100.00
2023-03-28T06:40:57.791Z,100.00
2023-03-28T06:44:07.390Z,100.00
2023-03-28T06:47:15.449Z,100.00
2023-03-28T06:50:24.165Z,100.00
2023-03-28T06:53:32.138Z,100.00
2023-03-28T07:00:08.259Z,100.00
2023-03-28T07:03:19.353Z,100.00
2023-03-28T07:06:28.201Z,99.45
2023-03-28T07:09:34.960Z,98.85
2023-03-28T07:12:43.562Z,98.66
2023-03-28T07:15:50.300Z,99.55
2023-03-28T07:18:56.036Z,99.25
2023-03-28T07:22:03.932Z,99.55
2023-03-28T07:25:11.687Z,99.75
2023-03-28T07:28:17.719Z,99.68
2023-03-28T07:31:24.870Z,99.08
2023-03-28T07:34:32.598Z,99.12
2023-03-28T07:37:41.072Z,98.25
2023-03-28T07:41:04.576Z,97.44
2023-03-28T07:44:10.369Z,96.55
2023-03-28T07:47:16.947Z,95.37
2023-03-28T07:50:24.848Z,95.84
2023-03-28T07:53:31.105Z,97.03
2023-03-28T07:56:39.593Z,98.80
2023-03-28T08:00:17.991Z,99.94
2023-03-28T08:03:27.303Z,100.00
2023-03-28T08:06:34.832Z,100.00
2023-03-28T08:09:41.466Z,100.00
2023-03-28T08:12:49.323Z,100.00
2023-03-28T08:15:55.418Z,100.00
2023-03-28T08:19:21.337Z,100.00
2023-03-28T08:22:42.995Z,100.00
2023-03-28T08:25:55.017Z,100.00
2023-03-28T08:29:01.244Z,100.00
2023-03-28T08:32:08.616Z,100.00
2023-03-28T08:35:47.202Z,100.00
2023-03-28T08:42:20.437Z,100.00
2023-03-28T08:45:56.238Z,100.00
2023-03-28T08:49:16.527Z,99.09
2023-03-28T08:52:53.567Z,97.67
2023-03-28T08:55:58.895Z,99.31
2023-03-28T08:59:25.830Z,99.73
2023-03-28T09:02:38.958Z,99.80
2023-03-28T09:06:08.671Z,100.00
2023-03-28T09:10:00.308Z,100.00
2023-03-28T09:13:22.252Z,100.00
2023-03-28T09:16:53.754Z,100.00
2023-03-28T09:20:26.416Z,100.00
2023-03-28T09:24:33.883Z,100.00
2023-03-28T09:27:46.446Z,100.00
2023-03-28T09:31:03.378Z,100.00
2023-03-28T09:34:08.697Z,100.00
2023-03-28T09:37:18.489Z,100.00
2023-03-28T09:40:37.499Z,100.00
2023-03-28T09:43:59.142Z,100.00
2023-03-28T09:47:10.518Z,100.00
2023-03-28T09:50:17.800Z,100.00
2023-03-28T09:53:33.840Z,100.00
2023-03-28T09:56:49.654Z,100.00
2023-03-28T09:59:57.748Z,100.00
2023-03-28T10:03:08.766Z,100.00
2023-03-28T10:06:15.245Z,100.00
2023-03-28T10:09:37.342Z,100.00
2023-03-28T10:12:52.536Z,100.00
2023-03-28T10:16:02.578Z,100.00
2023-03-28T10:19:25.910Z,100.00
2023-03-28T10:22:35.865Z,100.00
2023-03-28T10:25:39.424Z,100.00
2023-03-28T10:28:50.244Z,100.00
2023-03-28T10:32:01.434Z,100.00
2023-03-28T10:35:26.546Z,100.00
2023-03-28T10:39:00.995Z,100.00
2023-03-28T10:42:15.761Z,100.00
2023-03-28T10:45:58.394Z,100.00
2023-03-28T10:49:12.785Z,100.00
2023-03-28T10:52:55.023Z,100.00
2023-03-28T10:56:48.878Z,100.00
2023-03-28T11:00:35.107Z,100.00
2023-03-28T11:04:10.954Z,100.00
2023-03-28T11:07:21.719Z,100.00
2023-03-28T11:10:52.725Z,100.00
2023-03-28T11:14:14.542Z,100.00
2023-03-28T11:17:30.596Z,100.00
2023-03-28T11:21:02.329Z,100.00
2023-03-28T11:24:23.443Z,100.00
2023-03-28T11:28:13.807Z,100.00
2023-03-28T11:31:22.797Z,100.00
2023-03-28T11:34:42.780Z,100.00
2023-03-28T11:38:04.477Z,100.00
2023-03-28T11:41:29.469Z,100.00
2023-03-28T11:44:58.600Z,100.00
2023-03-28T11:48:10.356Z,100.00
2023-03-28T11:51:23.292Z,100.00
2023-03-28T11:54:54.161Z,100.00
2023-03-28T11:58:21.691Z,100.00
2023-03-28T12:01:36.136Z,100.00
2023-03-28T12:04:49.530Z,100.00
2023-03-28T12:08:08.022Z,100.00
2023-03-28T12:11:16.427Z,100.00
2023-03-28T12:14:49.736Z,100.00
2023-03-28T12:18:08.593Z,100.00
2023-03-28T12:21:39.900Z,100.00
2023-03-28T12:24:56.871Z,100.00
2023-03-28T12:28:41.411Z,100.00
2023-03-28T12:32:03.990Z,100.00
2023-03-28T12:35:46.126Z,100.00
2023-03-28T12:39:05.323Z,100.00
2023-03-28T12:42:12.029Z,100.00
2023-03-28T12:45:21.646Z,100.00
2023-03-28T12:48:50.980Z,100.00
2023-03-28T12:52:01.774Z,100.00
2023-03-28T12:55:14.834Z,100.00
2023-03-28T12:58:42.570Z,100.00
2023-03-28T13:02:03.869Z,100.00
2023-03-28T13:05:30.663Z,100.00
2023-03-28T13:09:01.673Z,100.00
2023-03-28T13:12:36.480Z,100.00
2023-03-28T13:15:46.292Z,100.00
2023-03-28T13:19:01.367Z,100.00
2023-03-28T13:22:13.611Z,100.00
2023-03-28T13:25:45.616Z,100.00
2023-03-28T13:29:01.760Z,100.00
2023-03-28T13:32:07.817Z,100.00
2023-03-28T13:35:19.238Z,100.00
2023-03-28T13:38:46.255Z,100.00
2023-03-28T13:42:03.947Z,100.00
2023-03-28T13:45:09.986Z,100.00
2023-03-28T13:48:17.492Z,100.00
2023-03-28T13:51:23.939Z,100.00
2023-03-28T13:54:30.965Z,100.00
2023-03-28T13:57:38.833Z,100.00
2023-03-28T14:00:44.302Z,100.00
2023-03-28T14:03:50.277Z,100.00
2023-03-28T14:06:56.126Z,100.00
2023-03-28T14:10:02.629Z,100.00
2023-03-28T14:13:08.967Z,100.00
2023-03-28T14:16:17.012Z,100.00
2023-03-28T14:19:24.507Z,100.00
2023-03-28T14:22:34.038Z,100.00
2023-03-28T14:25:40.054Z,100.00
2023-03-28T14:28:45.799Z,100.00
2023-03-28T14:31:53.184Z,100.00
2023-03-28T14:35:00.523Z,100.00
2023-03-28T14:38:09.535Z,100.00
2023-03-28T14:41:34.450Z,100.00
2023-03-28T14:44:39.212Z,100.00
2023-03-28T14:47:45.630Z,100.00
2023-03-28T14:50:55.109Z,100.00
2023-03-28T14:54:00.856Z,100.00
2023-03-28T14:57:07.378Z,100.00
2023-03-28T15:00:19.413Z,100.00
2023-03-28T15:03:48.814Z,100.00
2023-03-28T15:06:54.799Z,100.00
2023-03-28T15:09:59.988Z,100.00
2023-03-28T15:13:28.054Z,100.00
2023-03-28T15:16:37.227Z,100.00
2023-03-28T15:19:49.695Z,100.00
2023-03-28T15:22:55.584Z,100.00
2023-03-28T15:26:01.489Z,100.00
2023-03-28T15:29:10.748Z,100.00
2023-03-28T15:32:18.647Z,100.00
2023-03-28T15:35:45.937Z,100.00
2023-03-28T15:38:53.772Z,100.00
2023-03-28T15:42:01.131Z,100.00
2023-03-28T15:45:16.765Z,100.00
2023-03-28T15:48:25.026Z,100.00
2023-03-28T15:51:33.051Z,100.00
2023-03-28T15:54:38.370Z,100.00
2023-03-28T15:57:45.817Z,100.00
2023-03-28T16:00:56.031Z,100.00
2023-03-28T16:04:02.163Z,100.00
2023-03-28T16:07:26.076Z,100.00
2023-03-28T16:10:36.793Z,100.00
2023-03-28T16:13:51.284Z,100.00
2023-03-28T16:17:02.528Z,100.00
2023-03-28T16:20:10.410Z,100.00
2023-03-28T16:23:17.840Z,100.00
2023-03-28T16:26:23.956Z,100.00
2023-03-28T16:29:29.322Z,100.00
2023-03-28T16:32:34.702Z,100.00
2023-03-28T16:35:40.631Z,100.00
2023-03-28T16:38:47.298Z,100.00
2023-03-28T16:41:53.588Z,100.00
2023-03-28T16:45:01.385Z,100.00
2023-03-28T16:48:07.916Z,100.00
2023-03-28T16:51:13.721Z,100.00
2023-03-28T16:54:18.747Z,100.00
2023-03-28T16:57:23.923Z,100.00
2023-03-28T17:00:31.636Z,100.00
2023-03-28T17:03:38.808Z,100.00
2023-03-28T17:06:44.397Z,100.00
2023-03-28T17:09:50.592Z,100.00
2023-03-28T17:12:57.121Z,100.00
2023-03-28T17:16:03.405Z,100.00
2023-03-28T17:19:09.342Z,100.00
2023-03-28T17:22:15.760Z,100.00
2023-03-28T17:25:22.501Z,100.00
2023-03-28T17:28:30.283Z,100.00
2023-03-28T17:31:35.980Z,100.00
2023-03-28T17:34:43.138Z,100.00
2023-03-28T17:37:50.125Z,100.00
2023-03-28T17:41:00.790Z,100.00
2023-03-28T17:44:07.994Z,100.00
2023-03-28T17:47:13.898Z,100.00
2023-03-28T17:50:20.304Z,100.00
2023-03-28T17:53:25.362Z,100.00
2023-03-28T17:56:31.034Z,100.00
2023-03-28T17:59:36.644Z,100.00
2023-03-28T18:02:45.009Z,100.00
2023-03-28T18:05:51.879Z,100.00
2023-03-28T18:08:57.799Z,100.00
2023-03-28T18:12:04.939Z,100.00
2023-03-28T18:15:11.487Z,100.00
2023-03-28T18:18:19.359Z,100.00
2023-03-28T18:21:24.660Z,100.00
2023-03-28T18:24:29.978Z,100.00
2023-03-28T18:27:36.561Z,100.00
2023-03-28T18:30:44.484Z,100.00
2023-03-28T18:33:52.957Z,100.00
2023-03-28T18:37:02.054Z,100.00
2023-03-28T18:40:08.480Z,100.00
2023-03-28T18:43:15.436Z,100.00
2023-03-28T18:46:22.173Z,100.00
2023-03-28T18:49:28.279Z,100.00
2023-03-28T18:52:33.285Z,100.00
2023-03-28T18:55:39.242Z,100.00
2023-03-28T18:58:44.030Z,100.00
2023-03-28T19:01:51.784Z,100.00
2023-03-28T19:04:58.304Z,100.00
2023-03-28T19:08:04.571Z,100.00
2023-03-28T19:11:13.462Z,100.00
2023-03-28T19:14:20.163Z,100.00
2023-03-28T19:17:25.862Z,100.00
2023-03-28T19:20:31.923Z,100.00
2023-03-28T19:23:39.048Z,100.00
2023-03-28T19:26:46.143Z,100.00
2023-03-28T19:29:52.633Z,100.00
2023-03-28T19:32:58.928Z,100.00
2023-03-28T19:36:04.605Z,100.00
2023-03-28T19:39:10.691Z,100.00
2023-03-28T19:42:10.374Z,100.00
2023-03-28T19:45:15.431Z,100.00
2023-03-28T19:48:21.292Z,100.00
2023-03-28T19:51:26.818Z,100.00
2023-03-28T19:54:32.123Z,100.00
2023-03-28T19:57:38.499Z,100.00
2023-03-28T20:00:44.156Z,100.00
2023-03-28T20:03:51.558Z,100.00
2023-03-28T20:06:58.023Z,100.00
2023-03-28T20:10:04.696Z,100.00
2023-03-28T20:13:11.293Z,100.00
2023-03-28T20:16:18.763Z,100.00
2023-03-28T20:19:26.355Z,100.00
2023-03-28T20:22:32.875Z,100.00
2023-03-28T20:25:40.323Z,100.00
2023-03-28T20:28:46.849Z,100.00
2023-03-28T20:31:53.106Z,100.00
2023-03-28T20:34:58.211Z,100.00
2023-03-28T20:38:05.927Z,100.00
2023-03-28T20:41:11.146Z,100.00
2023-03-28T20:44:19.717Z,100.00
2023-03-28T20:47:27.103Z,99.39
2023-03-28T20:50:32.622Z,98.25
2023-03-28T20:53:38.263Z,97.25
2023-03-28T20:56:38.167Z,96.69
2023-03-28T20:59:46.257Z,96.53
2023-03-28T21:02:53.231Z,95.31
2023-03-28T21:05:59.696Z,95.21
2023-03-28T21:09:07.602Z,94.59
2023-03-28T21:12:13.892Z,94.58
2023-03-28T21:15:21.203Z,94.92
2023-03-28T21:18:26.787Z,94.61
2023-03-28T21:21:35.241Z,94.18
2023-03-28T21:24:40.570Z,95.06
2023-03-28T21:27:46.386Z,95.56
2023-03-28T21:30:52.975Z,94.92
2023-03-28T21:34:00.031Z,94.61
2023-03-28T21:37:06.589Z,94.53
2023-03-28T21:40:15.096Z,94.21
2023-03-28T21:43:22.129Z,94.47
2023-03-28T21:46:27.678Z,95.00
2023-03-28T21:49:34.257Z,95.04
2023-03-28T21:52:39.975Z,94.89
2023-03-28T21:55:45.999Z,94.51
2023-03-28T21:58:45.161Z,93.79
2023-03-28T22:01:31.448Z,92.94
2023-03-28T22:04:24.573Z,92.58
2023-03-28T22:07:11.017Z,93.14
2023-03-28T22:10:02.845Z,92.19
2023-03-28T22:13:04.514Z,91.79
2023-03-28T22:16:09.791Z,91.81
2023-03-28T22:19:01.478Z,91.53
2023-03-28T22:22:09.136Z,91.41
2023-03-28T22:25:16.348Z,91.67
2023-03-28T22:28:27.365Z,91.75
2023-03-28T22:31:33.062Z,92.07
2023-03-28T22:34:38.230Z,91.17
2023-03-28T22:37:43.459Z,90.94
2023-03-28T22:40:42.179Z,91.39
2023-03-28T22:43:49.229Z,91.48
2023-03-28T22:46:56.638Z,91.85
2023-03-28T22:50:03.470Z,91.58
2023-03-28T22:53:10.718Z,90.93
2023-03-28T22:56:16.033Z,91.31
2023-03-28T22:59:23.495Z,91.50
2023-03-28T23:02:29.905Z,91.41
2023-03-28T23:05:35.382Z,92.02
2023-03-28T23:08:40.738Z,92.40
2023-03-28T23:11:41.667Z,91.69
2023-03-28T23:14:47.114Z,92.11
2023-03-28T23:17:53.288Z,92.29
2023-03-28T23:21:04.850Z,92.54
2023-03-28T23:24:10.476Z,92.81
2023-03-28T23:27:17.862Z,92.86
2023-03-28T23:30:24.578Z,93.04
2023-03-28T23:33:30.307Z,93.39
2023-03-28T23:36:36.920Z,93.57
2023-03-28T23:39:41.895Z,92.20
2023-03-28T23:42:49.509Z,92.01
2023-03-28T23:45:55.680Z,91.69
2023-03-28T23:49:01.984Z,91.32
2023-03-28T23:52:08.522Z,91.76
2023-03-28T23:55:15.250Z,91.76
2023-03-28T23:58:20.106Z,91.36
